Terminal Aerodrome Forecast
Issued by NWS

Current Version | Previous Version | Graphics & Text | Print | Product List | Glossary On
Versions: 1 2 3 4 5 6 7 8 9 10 11 12 13 14 15 16 17 18 19 20
000
FTUS41 KILN 180907 AAA
TAFLUK
TAF AMD
KLUK 180907Z 1809/1906 20014G22KT P6SM VCSH OVC045 WS020/21050KT
     FM181400 20016G26KT P6SM VCSH OVC019
     FM182100 21016G26KT 4SM SHRA BR OVC016
     FM190000 29021G28KT 4SM -SHRA BR OVC019
     FM190200 30021G32KT P6SM OVC019=

USA.gov is the U.S. government's official web portal to all federal, state and local government web resources and services.